sensor_id;sensor_type;location;lat;lon;timestamp;P1;durP1;ratioP1;P2;durP2;ratioP2
27491;SDS011;14927;51.210;6.838;2024-03-29T00:01:14;4.18;;;1.08;;
27491;SDS011;14927;51.210;6.838;2024-03-29T00:03:58;5.13;;;0.80;;
27491;SDS011;14927;51.210;6.838;2024-03-29T00:06:43;5.15;;;1.17;;
27491;SDS011;14927;51.210;6.838;2024-03-29T00:09:27;6.32;;;1.40;;
27491;SDS011;14927;51.210;6.838;2024-03-29T00:12:12;6.03;;;1.20;;
27491;SDS011;14927;51.210;6.838;2024-03-29T00:14:57;4.60;;;1.20;;
27491;SDS011;14927;51.210;6.838;2024-03-29T00:17:41;4.70;;;1.17;;
27491;SDS011;14927;51.210;6.838;2024-03-29T00:20:26;8.20;;;1.20;;
27491;SDS011;14927;51.210;6.838;2024-03-29T00:23:12;4.15;;;1.10;;
27491;SDS011;14927;51.210;6.838;2024-03-29T00:25:57;4.22;;;0.80;;
27491;SDS011;14927;51.210;6.838;2024-03-29T00:28:42;2.95;;;0.98;;
27491;SDS011;14927;51.210;6.838;2024-03-29T00:31:27;3.80;;;0.95;;
27491;SDS011;14927;51.210;6.838;2024-03-29T00:34:11;3.67;;;1.17;;
27491;SDS011;14927;51.210;6.838;2024-03-29T00:36:56;5.38;;;1.67;;
27491;SDS011;14927;51.210;6.838;2024-03-29T00:39:41;6.40;;;1.63;;
27491;SDS011;14927;51.210;6.838;2024-03-29T00:42:28;3.92;;;1.50;;
27491;SDS011;14927;51.210;6.838;2024-03-29T00:45:13;3.00;;;1.40;;
27491;SDS011;14927;51.210;6.838;2024-03-29T00:47:57;3.95;;;0.98;;
27491;SDS011;14927;51.210;6.838;2024-03-29T00:50:42;5.10;;;1.02;;
27491;SDS011;14927;51.210;6.838;2024-03-29T00:53:26;2.85;;;0.90;;
27491;SDS011;14927;51.210;6.838;2024-03-29T00:56:11;3.63;;;1.05;;
27491;SDS011;14927;51.210;6.838;2024-03-29T00:58:56;4.50;;;0.80;;
27491;SDS011;14927;51.210;6.838;2024-03-29T01:01:40;3.10;;;1.00;;
27491;SDS011;14927;51.210;6.838;2024-03-29T01:04:25;3.75;;;0.88;;
27491;SDS011;14927;51.210;6.838;2024-03-29T01:07:09;2.63;;;0.75;;
27491;SDS011;14927;51.210;6.838;2024-03-29T01:09:54;3.33;;;0.60;;
27491;SDS011;14927;51.210;6.838;2024-03-29T01:12:39;3.88;;;1.00;;
27491;SDS011;14927;51.210;6.838;2024-03-29T01:15:24;2.25;;;0.50;;
27491;SDS011;14927;51.210;6.838;2024-03-29T01:18:09;2.92;;;0.80;;
27491;SDS011;14927;51.210;6.838;2024-03-29T01:20:54;2.80;;;0.68;;
27491;SDS011;14927;51.210;6.838;2024-03-29T01:23:39;1.80;;;0.90;;
27491;SDS011;14927;51.210;6.838;2024-03-29T01:26:24;3.63;;;0.90;;
27491;SDS011;14927;51.210;6.838;2024-03-29T01:29:08;1.55;;;0.60;;
27491;SDS011;14927;51.210;6.838;2024-03-29T01:31:53;1.55;;;0.63;;
27491;SDS011;14927;51.210;6.838;2024-03-29T01:34:37;3.50;;;0.77;;
27491;SDS011;14927;51.210;6.838;2024-03-29T01:37:22;7.72;;;1.25;;
27491;SDS011;14927;51.210;6.838;2024-03-29T01:40:07;4.28;;;0.80;;
27491;SDS011;14927;51.210;6.838;2024-03-29T01:42:55;4.20;;;1.00;;
27491;SDS011;14927;51.210;6.838;2024-03-29T01:45:40;2.17;;;0.70;;
27491;SDS011;14927;51.210;6.838;2024-03-29T01:48:26;3.08;;;0.75;;
27491;SDS011;14927;51.210;6.838;2024-03-29T01:51:11;3.38;;;0.77;;
27491;SDS011;14927;51.210;6.838;2024-03-29T01:53:58;5.28;;;0.75;;
27491;SDS011;14927;51.210;6.838;2024-03-29T01:56:44;4.00;;;0.80;;
27491;SDS011;14927;51.210;6.838;2024-03-29T01:59:28;2.25;;;0.68;;
27491;SDS011;14927;51.210;6.838;2024-03-29T02:02:13;6.90;;;0.88;;
27491;SDS011;14927;51.210;6.838;2024-03-29T02:04:57;5.38;;;0.77;;
27491;SDS011;14927;51.210;6.838;2024-03-29T02:07:43;2.80;;;0.80;;
27491;SDS011;14927;51.210;6.838;2024-03-29T02:10:30;3.92;;;0.70;;
27491;SDS011;14927;51.210;6.838;2024-03-29T02:13:15;5.00;;;0.77;;
27491;SDS011;14927;51.210;6.838;2024-03-29T02:16:00;3.72;;;0.77;;
27491;SDS011;14927;51.210;6.838;2024-03-29T02:18:44;2.60;;;0.60;;
27491;SDS011;14927;51.210;6.838;2024-03-29T02:21:29;3.00;;;0.80;;
27491;SDS011;14927;51.210;6.838;2024-03-29T02:24:16;1.80;;;0.75;;
27491;SDS011;14927;51.210;6.838;2024-03-29T02:27:01;5.78;;;1.02;;
27491;SDS011;14927;51.210;6.838;2024-03-29T02:29:46;2.92;;;0.73;;
27491;SDS011;14927;51.210;6.838;2024-03-29T02:32:31;4.80;;;0.77;;
27491;SDS011;14927;51.210;6.838;2024-03-29T02:35:15;1.77;;;0.70;;
27491;SDS011;14927;51.210;6.838;2024-03-29T02:38:00;1.73;;;0.73;;
27491;SDS011;14927;51.210;6.838;2024-03-29T02:40:44;5.75;;;0.70;;
27491;SDS011;14927;51.210;6.838;2024-03-29T02:43:29;2.45;;;0.57;;
27491;SDS011;14927;51.210;6.838;2024-03-29T02:46:14;3.17;;;0.50;;
27491;SDS011;14927;51.210;6.838;2024-03-29T02:48:59;2.72;;;0.80;;
27491;SDS011;14927;51.210;6.838;2024-03-29T02:51:43;1.25;;;0.57;;
27491;SDS011;14927;51.210;6.838;2024-03-29T02:54:28;3.00;;;0.60;;
27491;SDS011;14927;51.210;6.838;2024-03-29T02:57:13;4.22;;;0.73;;
27491;SDS011;14927;51.210;6.838;2024-03-29T02:59:57;2.22;;;0.60;;
27491;SDS011;14927;51.210;6.838;2024-03-29T03:02:42;1.60;;;0.40;;
27491;SDS011;14927;51.210;6.838;2024-03-29T03:05:27;1.33;;;0.60;;
27491;SDS011;14927;51.210;6.838;2024-03-29T03:08:11;3.10;;;0.77;;
27491;SDS011;14927;51.210;6.838;2024-03-29T03:11:14;2.58;;;0.80;;
27491;SDS011;14927;51.210;6.838;2024-03-29T03:13:59;3.97;;;0.70;;
27491;SDS011;14927;51.210;6.838;2024-03-29T03:16:43;3.78;;;0.63;;
27491;SDS011;14927;51.210;6.838;2024-03-29T03:19:28;2.83;;;0.60;;
27491;SDS011;14927;51.210;6.838;2024-03-29T03:22:12;3.53;;;0.85;;
27491;SDS011;14927;51.210;6.838;2024-03-29T03:24:58;4.45;;;0.60;;
27491;SDS011;14927;51.210;6.838;2024-03-29T03:27:42;2.00;;;0.80;;
27491;SDS011;14927;51.210;6.838;2024-03-29T03:30:27;5.75;;;0.82;;
27491;SDS011;14927;51.210;6.838;2024-03-29T03:33:11;3.90;;;0.90;;
27491;SDS011;14927;51.210;6.838;2024-03-29T03:35:56;2.22;;;0.60;;
27491;SDS011;14927;51.210;6.838;2024-03-29T03:38:41;3.25;;;0.75;;
27491;SDS011;14927;51.210;6.838;2024-03-29T03:41:25;1.65;;;0.45;;
27491;SDS011;14927;51.210;6.838;2024-03-29T03:44:10;3.28;;;0.70;;
27491;SDS011;14927;51.210;6.838;2024-03-29T03:46:55;4.55;;;1.10;;
27491;SDS011;14927;51.210;6.838;2024-03-29T03:49:39;2.78;;;0.65;;
27491;SDS011;14927;51.210;6.838;2024-03-29T03:52:24;5.10;;;0.65;;
27491;SDS011;14927;51.210;6.838;2024-03-29T03:55:08;1.98;;;0.80;;
27491;SDS011;14927;51.210;6.838;2024-03-29T03:57:53;2.28;;;0.70;;
27491;SDS011;14927;51.210;6.838;2024-03-29T04:00:38;4.82;;;0.50;;
27491;SDS011;14927;51.210;6.838;2024-03-29T04:03:23;3.60;;;0.82;;
27491;SDS011;14927;51.210;6.838;2024-03-29T04:06:07;3.35;;;0.63;;
27491;SDS011;14927;51.210;6.838;2024-03-29T04:08:52;2.35;;;0.90;;
27491;SDS011;14927;51.210;6.838;2024-03-29T04:11:37;5.45;;;0.63;;
27491;SDS011;14927;51.210;6.838;2024-03-29T04:14:21;2.00;;;1.13;;
27491;SDS011;14927;51.210;6.838;2024-03-29T04:17:06;2.47;;;0.70;;
27491;SDS011;14927;51.210;6.838;2024-03-29T04:19:50;3.50;;;0.80;;
27491;SDS011;14927;51.210;6.838;2024-03-29T04:22:35;1.33;;;0.68;;
27491;SDS011;14927;51.210;6.838;2024-03-29T04:25:21;2.17;;;0.75;;
27491;SDS011;14927;51.210;6.838;2024-03-29T04:28:05;3.50;;;0.63;;
27491;SDS011;14927;51.210;6.838;2024-03-29T04:30:51;4.03;;;0.77;;
27491;SDS011;14927;51.210;6.838;2024-03-29T04:33:42;2.00;;;0.52;;
27491;SDS011;14927;51.210;6.838;2024-03-29T04:36:27;3.35;;;0.68;;
27491;SDS011;14927;51.210;6.838;2024-03-29T04:39:11;3.63;;;0.70;;
27491;SDS011;14927;51.210;6.838;2024-03-29T04:41:56;2.92;;;0.52;;
27491;SDS011;14927;51.210;6.838;2024-03-29T04:44:40;3.38;;;0.82;;
27491;SDS011;14927;51.210;6.838;2024-03-29T04:47:26;4.07;;;1.10;;
27491;SDS011;14927;51.210;6.838;2024-03-29T04:50:10;3.22;;;0.60;;
27491;SDS011;14927;51.210;6.838;2024-03-29T04:52:55;3.10;;;0.98;;
27491;SDS011;14927;51.210;6.838;2024-03-29T04:55:39;3.55;;;0.95;;
27491;SDS011;14927;51.210;6.838;2024-03-29T04:58:24;3.90;;;1.05;;
27491;SDS011;14927;51.210;6.838;2024-03-29T05:01:09;2.25;;;0.77;;
27491;SDS011;14927;51.210;6.838;2024-03-29T05:03:53;4.82;;;0.60;;
27491;SDS011;14927;51.210;6.838;2024-03-29T05:06:38;2.55;;;1.00;;
27491;SDS011;14927;51.210;6.838;2024-03-29T05:09:23;1.85;;;0.73;;
27491;SDS011;14927;51.210;6.838;2024-03-29T05:12:08;2.05;;;0.60;;
27491;SDS011;14927;51.210;6.838;2024-03-29T05:14:53;3.60;;;0.82;;
27491;SDS011;14927;51.210;6.838;2024-03-29T05:17:37;2.15;;;0.80;;
27491;SDS011;14927;51.210;6.838;2024-03-29T05:20:24;4.38;;;1.27;;
27491;SDS011;14927;51.210;6.838;2024-03-29T05:23:09;3.72;;;0.77;;
27491;SDS011;14927;51.210;6.838;2024-03-29T05:25:53;4.70;;;0.88;;
27491;SDS011;14927;51.210;6.838;2024-03-29T05:28:38;3.00;;;0.82;;
27491;SDS011;14927;51.210;6.838;2024-03-29T05:31:22;3.20;;;0.60;;
27491;SDS011;14927;51.210;6.838;2024-03-29T05:34:08;2.03;;;0.82;;
27491;SDS011;14927;51.210;6.838;2024-03-29T05:36:53;2.38;;;0.70;;
27491;SDS011;14927;51.210;6.838;2024-03-29T05:39:37;2.13;;;0.60;;
27491;SDS011;14927;51.210;6.838;2024-03-29T05:42:22;2.75;;;0.85;;
27491;SDS011;14927;51.210;6.838;2024-03-29T05:45:20;2.25;;;0.75;;
27491;SDS011;14927;51.210;6.838;2024-03-29T05:48:12;2.50;;;0.85;;
27491;SDS011;14927;51.210;6.838;2024-03-29T05:50:56;3.13;;;0.77;;
27491;SDS011;14927;51.210;6.838;2024-03-29T05:53:41;2.33;;;0.60;;
27491;SDS011;14927;51.210;6.838;2024-03-29T05:56:26;6.35;;;0.93;;
27491;SDS011;14927;51.210;6.838;2024-03-29T05:59:10;3.95;;;0.80;;
27491;SDS011;14927;51.210;6.838;2024-03-29T06:01:56;1.27;;;0.47;;
27491;SDS011;14927;51.210;6.838;2024-03-29T06:04:40;2.13;;;0.82;;
27491;SDS011;14927;51.210;6.838;2024-03-29T06:07:25;2.17;;;0.73;;
27491;SDS011;14927;51.210;6.838;2024-03-29T06:10:12;4.70;;;1.20;;
27491;SDS011;14927;51.210;6.838;2024-03-29T06:12:58;4.35;;;0.80;;
27491;SDS011;14927;51.210;6.838;2024-03-29T06:15:50;5.15;;;1.55;;
27491;SDS011;14927;51.210;6.838;2024-03-29T06:18:53;1.50;;;0.80;;
27491;SDS011;14927;51.210;6.838;2024-03-29T06:21:38;4.72;;;1.00;;
27491;SDS011;14927;51.210;6.838;2024-03-29T06:24:23;3.58;;;1.10;;
27491;SDS011;14927;51.210;6.838;2024-03-29T06:27:08;1.75;;;0.75;;
27491;SDS011;14927;51.210;6.838;2024-03-29T06:29:52;3.08;;;0.75;;
27491;SDS011;14927;51.210;6.838;2024-03-29T06:32:37;4.03;;;1.15;;
27491;SDS011;14927;51.210;6.838;2024-03-29T06:35:21;4.25;;;1.02;;
27491;SDS011;14927;51.210;6.838;2024-03-29T06:38:06;4.07;;;1.20;;
27491;SDS011;14927;51.210;6.838;2024-03-29T06:40:50;2.75;;;0.82;;
27491;SDS011;14927;51.210;6.838;2024-03-29T06:43:35;3.00;;;0.85;;
27491;SDS011;14927;51.210;6.838;2024-03-29T06:46:20;4.68;;;0.80;;
27491;SDS011;14927;51.210;6.838;2024-03-29T06:49:04;4.38;;;1.15;;
27491;SDS011;14927;51.210;6.838;2024-03-29T06:51:50;3.00;;;1.10;;
27491;SDS011;14927;51.210;6.838;2024-03-29T06:54:34;4.68;;;1.38;;
27491;SDS011;14927;51.210;6.838;2024-03-29T06:57:19;6.35;;;1.63;;
27491;SDS011;14927;51.210;6.838;2024-03-29T07:00:07;7.20;;;1.40;;
27491;SDS011;14927;51.210;6.838;2024-03-29T07:02:53;4.00;;;1.38;;
27491;SDS011;14927;51.210;6.838;2024-03-29T07:05:37;3.95;;;1.65;;
27491;SDS011;14927;51.210;6.838;2024-03-29T07:08:22;6.10;;;1.63;;
27491;SDS011;14927;51.210;6.838;2024-03-29T07:11:07;4.95;;;1.75;;
27491;SDS011;14927;51.210;6.838;2024-03-29T07:13:51;5.53;;;1.40;;
27491;SDS011;14927;51.210;6.838;2024-03-29T07:16:36;5.82;;;1.42;;
27491;SDS011;14927;51.210;6.838;2024-03-29T07:19:20;5.43;;;1.77;;
27491;SDS011;14927;51.210;6.838;2024-03-29T07:22:05;6.68;;;1.42;;
27491;SDS011;14927;51.210;6.838;2024-03-29T07:24:50;6.07;;;1.58;;
27491;SDS011;14927;51.210;6.838;2024-03-29T07:27:35;5.03;;;1.17;;
27491;SDS011;14927;51.210;6.838;2024-03-29T07:30:19;1.95;;;1.10;;
27491;SDS011;14927;51.210;6.838;2024-03-29T07:33:04;4.80;;;1.17;;
27491;SDS011;14927;51.210;6.838;2024-03-29T07:35:48;2.47;;;1.27;;
27491;SDS011;14927;51.210;6.838;2024-03-29T07:38:33;2.35;;;1.35;;
27491;SDS011;14927;51.210;6.838;2024-03-29T07:41:18;3.75;;;1.20;;
27491;SDS011;14927;51.210;6.838;2024-03-29T07:44:02;4.55;;;1.15;;
27491;SDS011;14927;51.210;6.838;2024-03-29T07:46:47;3.67;;;0.90;;
27491;SDS011;14927;51.210;6.838;2024-03-29T07:49:32;4.43;;;1.20;;
27491;SDS011;14927;51.210;6.838;2024-03-29T07:52:17;3.33;;;1.55;;
27491;SDS011;14927;51.210;6.838;2024-03-29T07:55:03;3.17;;;1.60;;
27491;SDS011;14927;51.210;6.838;2024-03-29T07:57:48;3.25;;;1.25;;
27491;SDS011;14927;51.210;6.838;2024-03-29T08:00:32;2.97;;;1.00;;
27491;SDS011;14927;51.210;6.838;2024-03-29T08:03:17;4.05;;;1.30;;
27491;SDS011;14927;51.210;6.838;2024-03-29T08:06:02;3.33;;;1.05;;
27491;SDS011;14927;51.210;6.838;2024-03-29T08:08:50;2.85;;;0.85;;
27491;SDS011;14927;51.210;6.838;2024-03-29T08:11:35;1.23;;;0.82;;
27491;SDS011;14927;51.210;6.838;2024-03-29T08:14:19;3.03;;;0.80;;
27491;SDS011;14927;51.210;6.838;2024-03-29T08:17:04;2.35;;;0.90;;
27491;SDS011;14927;51.210;6.838;2024-03-29T08:19:53;1.98;;;0.95;;
27491;SDS011;14927;51.210;6.838;2024-03-29T08:22:37;1.80;;;0.90;;
27491;SDS011;14927;51.210;6.838;2024-03-29T08:25:22;3.90;;;1.05;;
27491;SDS011;14927;51.210;6.838;2024-03-29T08:28:07;2.88;;;0.88;;
27491;SDS011;14927;51.210;6.838;2024-03-29T08:30:58;2.08;;;1.00;;
27491;SDS011;14927;51.210;6.838;2024-03-29T08:33:44;1.35;;;0.73;;
27491;SDS011;14927;51.210;6.838;2024-03-29T08:36:29;0.88;;;0.80;;
27491;SDS011;14927;51.210;6.838;2024-03-29T08:39:13;2.03;;;0.77;;
27491;SDS011;14927;51.210;6.838;2024-03-29T08:41:59;2.95;;;0.90;;
27491;SDS011;14927;51.210;6.838;2024-03-29T08:44:43;3.85;;;1.00;;
27491;SDS011;14927;51.210;6.838;2024-03-29T08:47:28;3.00;;;0.90;;
27491;SDS011;14927;51.210;6.838;2024-03-29T08:50:12;2.97;;;1.13;;
27491;SDS011;14927;51.210;6.838;2024-03-29T08:52:57;2.42;;;1.08;;
27491;SDS011;14927;51.210;6.838;2024-03-29T08:55:42;2.80;;;0.93;;
27491;SDS011;14927;51.210;6.838;2024-03-29T08:58:27;2.67;;;1.05;;
27491;SDS011;14927;51.210;6.838;2024-03-29T09:01:12;2.13;;;1.02;;
27491;SDS011;14927;51.210;6.838;2024-03-29T09:03:58;1.42;;;0.60;;
27491;SDS011;14927;51.210;6.838;2024-03-29T09:06:42;1.85;;;0.90;;
27491;SDS011;14927;51.210;6.838;2024-03-29T09:09:27;2.15;;;0.60;;
27491;SDS011;14927;51.210;6.838;2024-03-29T09:12:12;4.28;;;1.00;;
27491;SDS011;14927;51.210;6.838;2024-03-29T09:14:57;2.70;;;1.45;;
27491;SDS011;14927;51.210;6.838;2024-03-29T09:17:48;1.88;;;0.75;;
27491;SDS011;14927;51.210;6.838;2024-03-29T09:20:32;1.75;;;0.73;;
27491;SDS011;14927;51.210;6.838;2024-03-29T09:23:17;1.60;;;0.50;;
27491;SDS011;14927;51.210;6.838;2024-03-29T09:26:04;1.02;;;0.50;;
27491;SDS011;14927;51.210;6.838;2024-03-29T09:28:48;2.40;;;0.50;;
27491;SDS011;14927;51.210;6.838;2024-03-29T09:31:33;0.88;;;0.45;;
27491;SDS011;14927;51.210;6.838;2024-03-29T09:34:18;2.75;;;0.77;;
27491;SDS011;14927;51.210;6.838;2024-03-29T09:37:03;0.88;;;0.60;;
27491;SDS011;14927;51.210;6.838;2024-03-29T09:39:48;1.05;;;0.60;;
27491;SDS011;14927;51.210;6.838;2024-03-29T09:42:33;1.63;;;0.73;;
27491;SDS011;14927;51.210;6.838;2024-03-29T09:45:17;2.25;;;0.70;;
27491;SDS011;14927;51.210;6.838;2024-03-29T09:48:05;0.52;;;0.40;;
27491;SDS011;14927;51.210;6.838;2024-03-29T09:50:53;1.58;;;0.60;;
27491;SDS011;14927;51.210;6.838;2024-03-29T09:53:40;1.80;;;0.63;;
27491;SDS011;14927;51.210;6.838;2024-03-29T09:56:27;1.30;;;0.63;;
27491;SDS011;14927;51.210;6.838;2024-03-29T09:59:11;1.10;;;0.40;;
27491;SDS011;14927;51.210;6.838;2024-03-29T10:01:56;1.00;;;0.50;;
27491;SDS011;14927;51.210;6.838;2024-03-29T10:04:43;3.58;;;0.70;;
27491;SDS011;14927;51.210;6.838;2024-03-29T10:07:33;0.45;;;0.45;;
27491;SDS011;14927;51.210;6.838;2024-03-29T10:10:20;4.45;;;0.52;;
27491;SDS011;14927;51.210;6.838;2024-03-29T10:13:04;0.65;;;0.38;;
27491;SDS011;14927;51.210;6.838;2024-03-29T10:15:49;0.52;;;0.32;;
27491;SDS011;14927;51.210;6.838;2024-03-29T10:18:37;1.13;;;0.52;;
27491;SDS011;14927;51.210;6.838;2024-03-29T10:21:24;1.15;;;0.40;;
27491;SDS011;14927;51.210;6.838;2024-03-29T10:24:13;1.05;;;0.57;;
27491;SDS011;14927;51.210;6.838;2024-03-29T10:26:58;0.93;;;0.52;;
27491;SDS011;14927;51.210;6.838;2024-03-29T10:29:42;0.52;;;0.40;;
27491;SDS011;14927;51.210;6.838;2024-03-29T10:32:27;0.73;;;0.40;;
27491;SDS011;14927;51.210;6.838;2024-03-29T10:35:12;1.88;;;0.43;;
27491;SDS011;14927;51.210;6.838;2024-03-29T10:37:56;0.95;;;0.30;;
27491;SDS011;14927;51.210;6.838;2024-03-29T10:40:41;0.90;;;0.40;;
27491;SDS011;14927;51.210;6.838;2024-03-29T10:43:26;1.95;;;0.68;;
27491;SDS011;14927;51.210;6.838;2024-03-29T10:46:11;1.42;;;0.80;;
27491;SDS011;14927;51.210;6.838;2024-03-29T10:48:56;2.20;;;0.40;;
27491;SDS011;14927;51.210;6.838;2024-03-29T10:51:41;1.58;;;0.68;;
27491;SDS011;14927;51.210;6.838;2024-03-29T10:54:26;2.20;;;0.40;;
27491;SDS011;14927;51.210;6.838;2024-03-29T10:57:16;1.15;;;0.40;;
27491;SDS011;14927;51.210;6.838;2024-03-29T11:00:08;1.42;;;0.35;;
27491;SDS011;14927;51.210;6.838;2024-03-29T11:03:05;0.82;;;0.47;;
27491;SDS011;14927;51.210;6.838;2024-03-29T11:06:13;1.85;;;0.60;;
27491;SDS011;14927;51.210;6.838;2024-03-29T11:08:59;0.70;;;0.30;;
27491;SDS011;14927;51.210;6.838;2024-03-29T11:11:46;1.83;;;0.65;;
27491;SDS011;14927;51.210;6.838;2024-03-29T11:14:45;1.20;;;0.80;;
27491;SDS011;14927;51.210;6.838;2024-03-29T11:17:48;1.30;;;0.43;;
27491;SDS011;14927;51.210;6.838;2024-03-29T11:20:33;1.90;;;0.52;;
27491;SDS011;14927;51.210;6.838;2024-03-29T11:23:21;1.55;;;0.60;;
27491;SDS011;14927;51.210;6.838;2024-03-29T11:26:07;1.45;;;0.70;;
27491;SDS011;14927;51.210;6.838;2024-03-29T11:28:52;4.68;;;0.57;;
27491;SDS011;14927;51.210;6.838;2024-03-29T11:31:38;0.75;;;0.30;;
27491;SDS011;14927;51.210;6.838;2024-03-29T11:34:22;2.13;;;0.30;;
27491;SDS011;14927;51.210;6.838;2024-03-29T11:37:11;2.05;;;0.40;;
27491;SDS011;14927;51.210;6.838;2024-03-29T11:40:00;4.70;;;0.28;;
27491;SDS011;14927;51.210;6.838;2024-03-29T11:42:46;0.57;;;0.50;;
27491;SDS011;14927;51.210;6.838;2024-03-29T11:45:31;1.27;;;0.38;;
27491;SDS011;14927;51.210;6.838;2024-03-29T11:48:18;0.22;;;0.20;;
27491;SDS011;14927;51.210;6.838;2024-03-29T11:51:10;0.77;;;0.40;;
27491;SDS011;14927;51.210;6.838;2024-03-29T11:53:58;0.35;;;0.20;;
27491;SDS011;14927;51.210;6.838;2024-03-29T11:56:47;0.98;;;0.40;;
27491;SDS011;14927;51.210;6.838;2024-03-29T11:59:32;2.25;;;0.75;;
27491;SDS011;14927;51.210;6.838;2024-03-29T12:02:16;0.52;;;0.35;;
27491;SDS011;14927;51.210;6.838;2024-03-29T12:05:05;1.15;;;0.22;;
27491;SDS011;14927;51.210;6.838;2024-03-29T12:07:52;0.70;;;0.25;;
27491;SDS011;14927;51.210;6.838;2024-03-29T12:10:37;2.00;;;0.85;;
27491;SDS011;14927;51.210;6.838;2024-03-29T12:13:21;1.25;;;0.50;;
27491;SDS011;14927;51.210;6.838;2024-03-29T12:16:06;0.88;;;0.32;;
27491;SDS011;14927;51.210;6.838;2024-03-29T12:18:51;1.48;;;0.65;;
27491;SDS011;14927;51.210;6.838;2024-03-29T12:21:36;3.20;;;0.50;;
27491;SDS011;14927;51.210;6.838;2024-03-29T12:24:26;0.98;;;0.30;;
27491;SDS011;14927;51.210;6.838;2024-03-29T12:27:17;0.80;;;0.30;;
27491;SDS011;14927;51.210;6.838;2024-03-29T12:30:10;0.73;;;0.40;;
27491;SDS011;14927;51.210;6.838;2024-03-29T12:35:55;1.73;;;0.40;;
27491;SDS011;14927;51.210;6.838;2024-03-29T12:38:41;0.73;;;0.28;;
27491;SDS011;14927;51.210;6.838;2024-03-29T12:41:31;0.25;;;0.20;;
27491;SDS011;14927;51.210;6.838;2024-03-29T12:44:16;0.50;;;0.25;;
27491;SDS011;14927;51.210;6.838;2024-03-29T12:47:01;2.15;;;0.40;;
27491;SDS011;14927;51.210;6.838;2024-03-29T12:49:47;0.65;;;0.38;;
27491;SDS011;14927;51.210;6.838;2024-03-29T12:52:41;1.95;;;0.40;;
27491;SDS011;14927;51.210;6.838;2024-03-29T12:55:27;1.08;;;0.40;;
27491;SDS011;14927;51.210;6.838;2024-03-29T12:58:19;1.05;;;0.40;;
27491;SDS011;14927;51.210;6.838;2024-03-29T13:01:06;3.00;;;0.30;;
27491;SDS011;14927;51.210;6.838;2024-03-29T13:03:50;1.63;;;0.50;;
27491;SDS011;14927;51.210;6.838;2024-03-29T13:06:35;1.05;;;0.60;;
27491;SDS011;14927;51.210;6.838;2024-03-29T13:09:19;0.40;;;0.25;;
27491;SDS011;14927;51.210;6.838;2024-03-29T13:12:08;1.50;;;0.38;;
27491;SDS011;14927;51.210;6.838;2024-03-29T13:14:53;5.03;;;0.40;;
27491;SDS011;14927;51.210;6.838;2024-03-29T13:17:39;1.48;;;0.35;;
27491;SDS011;14927;51.210;6.838;2024-03-29T13:20:24;1.13;;;0.50;;
27491;SDS011;14927;51.210;6.838;2024-03-29T13:23:09;0.80;;;0.30;;
27491;SDS011;14927;51.210;6.838;2024-03-29T13:25:54;1.33;;;0.20;;
27491;SDS011;14927;51.210;6.838;2024-03-29T13:28:39;1.15;;;0.20;;
27491;SDS011;14927;51.210;6.838;2024-03-29T13:31:24;1.67;;;0.50;;
27491;SDS011;14927;51.210;6.838;2024-03-29T13:34:12;0.75;;;0.40;;
27491;SDS011;14927;51.210;6.838;2024-03-29T13:36:56;1.38;;;0.50;;
27491;SDS011;14927;51.210;6.838;2024-03-29T13:39:41;0.30;;;0.20;;
27491;SDS011;14927;51.210;6.838;2024-03-29T13:42:26;1.38;;;0.68;;
27491;SDS011;14927;51.210;6.838;2024-03-29T13:45:13;1.08;;;0.35;;
27491;SDS011;14927;51.210;6.838;2024-03-29T13:47:58;0.35;;;0.30;;
27491;SDS011;14927;51.210;6.838;2024-03-29T13:50:43;1.08;;;0.30;;
27491;SDS011;14927;51.210;6.838;2024-03-29T13:53:27;0.35;;;0.30;;
27491;SDS011;14927;51.210;6.838;2024-03-29T13:56:18;0.40;;;0.40;;
27491;SDS011;14927;51.210;6.838;2024-03-29T13:59:11;1.05;;;0.30;;
27491;SDS011;14927;51.210;6.838;2024-03-29T14:01:56;0.88;;;0.30;;
27491;SDS011;14927;51.210;6.838;2024-03-29T14:04:44;0.60;;;0.20;;
27491;SDS011;14927;51.210;6.838;2024-03-29T14:07:32;0.38;;;0.20;;
27491;SDS011;14927;51.210;6.838;2024-03-29T14:10:17;1.27;;;0.30;;
27491;SDS011;14927;51.210;6.838;2024-03-29T14:13:04;0.50;;;0.30;;
27491;SDS011;14927;51.210;6.838;2024-03-29T14:15:53;0.70;;;0.30;;
27491;SDS011;14927;51.210;6.838;2024-03-29T14:18:39;0.98;;;0.20;;
27491;SDS011;14927;51.210;6.838;2024-03-29T14:21:24;0.30;;;0.20;;
27491;SDS011;14927;51.210;6.838;2024-03-29T14:24:11;0.70;;;0.40;;
27491;SDS011;14927;51.210;6.838;2024-03-29T14:26:57;1.60;;;0.20;;
27491;SDS011;14927;51.210;6.838;2024-03-29T14:29:41;1.75;;;0.30;;
27491;SDS011;14927;51.210;6.838;2024-03-29T14:32:28;0.20;;;0.20;;
27491;SDS011;14927;51.210;6.838;2024-03-29T14:35:16;0.80;;;0.30;;
27491;SDS011;14927;51.210;6.838;2024-03-29T14:38:04;0.30;;;0.28;;
27491;SDS011;14927;51.210;6.838;2024-03-29T14:40:49;0.17;;;0.17;;
27491;SDS011;14927;51.210;6.838;2024-03-29T14:43:34;0.22;;;0.20;;
27491;SDS011;14927;51.210;6.838;2024-03-29T14:46:18;0.30;;;0.20;;
27491;SDS011;14927;51.210;6.838;2024-03-29T14:49:08;0.70;;;0.15;;
27491;SDS011;14927;51.210;6.838;2024-03-29T14:51:55;0.50;;;0.25;;
27491;SDS011;14927;51.210;6.838;2024-03-29T14:54:42;0.20;;;0.20;;
27491;SDS011;14927;51.210;6.838;2024-03-29T14:57:33;0.73;;;0.30;;
27491;SDS011;14927;51.210;6.838;2024-03-29T15:00:18;0.20;;;0.10;;
27491;SDS011;14927;51.210;6.838;2024-03-29T15:03:08;0.20;;;0.20;;
27491;SDS011;14927;51.210;6.838;2024-03-29T15:05:58;0.88;;;0.22;;
27491;SDS011;14927;51.210;6.838;2024-03-29T15:09:08;1.25;;;0.30;;
27491;SDS011;14927;51.210;6.838;2024-03-29T15:19:25;2.10;;;0.22;;
27491;SDS011;14927;51.210;6.838;2024-03-29T15:23:12;0.68;;;0.47;;
27491;SDS011;14927;51.210;6.838;2024-03-29T15:26:31;0.47;;;0.10;;
27491;SDS011;14927;51.210;6.838;2024-03-29T15:33:41;0.73;;;0.40;;
27491;SDS011;14927;51.210;6.838;2024-03-29T15:36:41;0.60;;;0.30;;
27491;SDS011;14927;51.210;6.838;2024-03-29T15:39:26;0.90;;;0.40;;
27491;SDS011;14927;51.210;6.838;2024-03-29T15:42:20;1.13;;;0.20;;
27491;SDS011;14927;51.210;6.838;2024-03-29T15:45:07;1.83;;;0.20;;
27491;SDS011;14927;51.210;6.838;2024-03-29T15:47:57;0.10;;;0.10;;
27491;SDS011;14927;51.210;6.838;2024-03-29T15:50:42;0.45;;;0.20;;
27491;SDS011;14927;51.210;6.838;2024-03-29T15:53:28;0.65;;;0.20;;
27491;SDS011;14927;51.210;6.838;2024-03-29T15:56:13;0.95;;;0.30;;
27491;SDS011;14927;51.210;6.838;2024-03-29T15:59:01;0.88;;;0.30;;
27491;SDS011;14927;51.210;6.838;2024-03-29T16:01:51;2.10;;;0.30;;
27491;SDS011;14927;51.210;6.838;2024-03-29T16:04:44;0.75;;;0.22;;
27491;SDS011;14927;51.210;6.838;2024-03-29T16:07:38;1.55;;;0.25;;
27491;SDS011;14927;51.210;6.838;2024-03-29T16:10:30;3.28;;;0.45;;
27491;SDS011;14927;51.210;6.838;2024-03-29T16:13:40;0.82;;;0.30;;
27491;SDS011;14927;51.210;6.838;2024-03-29T16:16:26;2.38;;;0.50;;
27491;SDS011;14927;51.210;6.838;2024-03-29T16:19:11;0.88;;;0.50;;
27491;SDS011;14927;51.210;6.838;2024-03-29T16:22:01;0.75;;;0.30;;
27491;SDS011;14927;51.210;6.838;2024-03-29T16:24:58;0.50;;;0.32;;
27491;SDS011;14927;51.210;6.838;2024-03-29T16:27:43;1.05;;;0.30;;
27491;SDS011;14927;51.210;6.838;2024-03-29T16:30:27;1.48;;;0.50;;
27491;SDS011;14927;51.210;6.838;2024-03-29T16:33:12;0.38;;;0.20;;
27491;SDS011;14927;51.210;6.838;2024-03-29T16:36:06;0.60;;;0.30;;
27491;SDS011;14927;51.210;6.838;2024-03-29T16:39:01;0.40;;;0.40;;
27491;SDS011;14927;51.210;6.838;2024-03-29T16:41:47;1.55;;;0.43;;
27491;SDS011;14927;51.210;6.838;2024-03-29T16:44:37;3.97;;;0.32;;
27491;SDS011;14927;51.210;6.838;2024-03-29T16:47:27;0.73;;;0.50;;
27491;SDS011;14927;51.210;6.838;2024-03-29T16:50:41;1.77;;;0.70;;
27491;SDS011;14927;51.210;6.838;2024-03-29T16:53:26;0.98;;;0.45;;
27491;SDS011;14927;51.210;6.838;2024-03-29T16:56:21;1.38;;;0.50;;
27491;SDS011;14927;51.210;6.838;2024-03-29T16:59:16;0.77;;;0.30;;